Sunday, July 22, 2018, 12:17 PM EDT
Back to Local

KSBY, Salisbury-wicomico Cty Reg

Location: Salisbury, MD, United States Lat: 38.333
Local Time: 12:17 PM EDT (16:17 GMT) Lon: -75.5
Time Zone: US/Eastern Elev: 52 ft

Show me the last for .
Show Decoded

2018-07-22 11:54 METAR KSBY 221554Z 14009G18KT 10SM SCT019 BKN025 BKN033 28/24 A2986 RMK AO2
                 SLP114 T02780239 =
2018-07-22 11:27 METAR KSBY 221527Z 15009KT 10SM BKN017 BKN023 27/24 A2986 RMK AO2 T02720239 =
2018-07-22 11:20 METAR KSBY 221520Z 14010G18KT 10SM SCT019 27/24 A2986 RMK AO2 T02720239 =
2018-07-22 10:54 METAR KSBY 221454Z 13011KT 10SM BKN018 27/23 A2986 RMK AO2 SLP113 T02670233
                 51007 =
2018-07-22 09:54 METAR KSBY 221354Z 15008KT 10SM OVC016 26/23 A2986 RMK AO2 SLP113 T02560228 =
2018-07-22 09:27 METAR KSBY 221327Z 14006KT 10SM SCT017 BKN029 26/22 A2986 RMK AO2 T02560222 =
2018-07-22 09:08 METAR KSBY 221308Z 13006KT 10SM SCT020 SCT030 24/22 A2985 RMK AO2 T02440222 =
2018-07-22 08:54 METAR KSBY 221254Z 13006KT 10SM BKN020 BKN026 23/22 A2985 RMK AO2 SLP109
                 T02330217 =
2018-07-22 08:11 METAR KSBY 221211Z 14007KT 10SM BKN027 OVC040 22/21 A2984 RMK AO2 T02170211 =
2018-07-22 07:54 METAR KSBY 221154Z 14004KT 10SM OVC030 21/21 A2984 RMK AO2 SLP106 60002 70116
                 T02110211 10211 20206 51023 =
2018-07-22 07:46 METAR KSBY 221146Z 16004KT 10SM FEW006 BKN030 OVC035 21/21 A2984 RMK AO2
                 T02110206 =
2018-07-22 07:13 METAR KSBY 221113Z 15004KT 10SM SCT013 BKN037 21/21 A2983 RMK AO2 T02060206 =
2018-07-22 06:54 METAR KSBY 221054Z 14005KT 10SM OVC013 21/21 A2982 RMK AO2 SLP098 T02060206 =
2018-07-22 05:54 METAR KSBY 220954Z 17005KT 10SM OVC013 21/21 A2980 RMK AO2 SLP092 T02060206 =
2018-07-22 04:54 METAR KSBY 220854Z AUTO 21008KT 10SM OVC011 21/20 A2977 RMK AO2 SLP083 60002
                 T02060200 51033 =
2018-07-22 04:31 METAR KSBY 220831Z AUTO 20008KT 10SM OVC010 21/21 A2976 RMK AO2 T02060206 =
2018-07-22 03:54 METAR KSBY 220754Z AUTO 22010KT 10SM OVC006 21/21 A2974 RMK AO2 SLP072 T02060206
                 =
2018-07-22 03:07 METAR KSBY 220707Z AUTO 22017G22KT 5SM BR OVC007 21/21 A2971 RMK AO2 CIG 004V010
                 T02060206 =
2018-07-22 02:54 METAR KSBY 220654Z AUTO 21013KT 2SM BR OVC005 21/21 A2971 RMK AO2 RAB19E46 CIG
                 004V010 SLP062 P0002 T02060206 =
2018-07-22 02:36 METAR KSBY 220636Z AUTO 20012KT 2SM -RA BR BKN006 OVC009 21/21 A2970 RMK AO2
                 RAB19 P0001 T02060206 =
2018-07-22 02:21 METAR KSBY 220621Z AUTO 20013KT 1 3/4SM -RA BR BKN006 OVC010 21/21 A2970 RMK AO2
                 RAB19 P0001 T02110211 =
2018-07-22 01:54 METAR KSBY 220554Z AUTO 20013KT 2SM BR OVC005 21/21 A2967 RMK AO2 RAB21E32 CIG
                 004V009 SLP050 P0000 60018 T02110211 10239 20211 53032 =
2018-07-22 00:54 METAR KSBY 220454Z AUTO 19015G24KT 2 1/2SM BR BKN005 OVC009 22/22 A2964 RMK AO2
                 PK WND 19029/0404 RAB22E45 SLP039 P0001 T02170217 402440183 =
2018-07-22 00:25 METAR KSBY 220425Z AUTO 19017G27KT 2 1/2SM -RA BR OVC004 22/22 A2963 RMK AO2 PK
                 WND 19029/0404 RAB22 P0000 T02220222 =
2018-07-21 23:54 METAR KSBY 220354Z AUTO 19012G27KT 10SM OVC006 23/23 A2960 RMK AO2 PK WND
                 18027/0346 RAB31E46 CIG 005V009 SLP025 P0001 T02330233 =
2018-07-21 22:54 METAR KSBY 220254Z AUTO 17008KT 6SM BR BKN006 OVC010 24/24 A2958 RMK AO2 RAE21
                 CIG 005V008 SLP018 P0001 60016 T02390239 55009 =
2018-07-21 22:30 METAR KSBY 220230Z 13005KT 4SM BR OVC005 24/24 A2957 RMK AO2 RAE21 P0001
                 T02390239 =
2018-07-21 22:23 METAR KSBY 220223Z 12007KT 2 1/2SM BR OVC005 24/24 A2957 RMK AO2 RAE21 P0001
                 T02390239 =
2018-07-21 22:08 METAR KSBY 220208Z 12007KT 1 3/4SM -RA BR OVC006 24/24 A2958 RMK AO2 CIG 004V008
                 P0001 T02390239 =
2018-07-21 21:54 METAR KSBY 220154Z 11008KT 4SM -RA BR OVC006 24/24 A2958 RMK AO2 SLP017 P0007
                 T02390239 =
2018-07-21 21:52 METAR KSBY 220152Z 11009G18KT 4SM -RA BR OVC006 24/24 A2958 RMK AO2 P0007 =
2018-07-21 21:43 METAR KSBY 220143Z 08011KT 2 1/2SM -RA BR BKN008 OVC013 24/24 A2958 RMK AO2
                 P0007 T02390239 =
2018-07-21 21:34 METAR KSBY 220134Z 07012KT 3SM -RA BR BKN008 OVC014 23/23 A2958 RMK AO2 P0007
                 T02330233 =
2018-07-21 21:18 METAR KSBY 220118Z 09014G24KT 1 3/4SM +RA BR BKN008 OVC012 23/23 A2959 RMK AO2
                 P0005 T02330233 =
2018-07-21 21:07 METAR KSBY 220107Z 09015G24KT 3SM -RA BR OVC008 23/23 A2960 RMK AO2 P0001
                 T02330233 =
2018-07-21 20:54 METAR KSBY 220054Z 09013G24KT 2SM RA BR BKN010 OVC014 23/23 A2961 RMK AO2 PK WND
                 08028/2357 SLP027 P0008 T02330233 =
2018-07-21 20:23 METAR KSBY 220023Z 08017G25KT 2 1/2SM -RA BR BKN010 OVC015 23/23 A2963 RMK AO2
                 PK WND 08028/2357 CIG 006V012 P0003 T02330228 =
2018-07-21 20:07 METAR KSBY 220007Z 09014G21KT 3SM -RA BR BKN010 OVC015 23/23 A2964 RMK AO2 PK
                 WND 08028/2357 P0002 T02330228 =
2018-07-21 19:54 METAR KSBY 212354Z 08018G26KT 1 1/4SM +RA BR SCT010 BKN015 OVC027 23/23 A2965
                 RMK AO2 PK WND 08031/2321 RAE23B29 SLP041 P0007 60049 T02330228 10239 20228
                 56024 =
2018-07-21 19:52 METAR KSBY 212352Z 07018G26KT 1 1/4SM RA BR SCT010 BKN015 OVC029 23/23 A2965 RMK
                 AO2 PK WND 08031/2321 RAE23B29 P0006 =
2018-07-21 19:43 METAR KSBY 212343Z 08015G24KT 1 3/4SM RA BR BKN010 BKN017 OVC028 23/23 A2965 RMK
                 AO2 PK WND 08031/2321 RAE23B29 P0003 T02330228 =
2018-07-21 19:24 METAR KSBY 212324Z 08019G31KT 9SM FEW008 BKN013 OVC019 23/23 A2967 RMK AO2 PK
                 WND 08031/2321 RAE23 P0003 T02330228 =
2018-07-21 19:09 METAR KSBY 212309Z 07019G29KT 3SM -RA BR BKN013 OVC018 23/23 A2967 RMK AO2 PK
                 WND 07029/2308 P0002 T02280228 =
2018-07-21 19:05 METAR KSBY 212305Z 06017G23KT 2SM -RA BR SCT010 OVC018 23/23 A2967 RMK AO2 P0002
                 T02280228 =
2018-07-21 18:54 METAR KSBY 212254Z 08014G26KT 6SM -RA BR FEW010 SCT013 OVC020 23/23 A2968 RMK
                 AO2 PK WND 06026/2251 SLP054 P0001 T02330228 =
2018-07-21 18:20 METAR KSBY 212220Z 08014KT 4SM -RA BR SCT008 SCT014 OVC021 23/23 A2971 RMK AO2
                 P0001 T02280228 =
2018-07-21 18:07 METAR KSBY 212207Z 08013KT 5SM -RA BR BKN008 BKN014 OVC021 23/23 A2971 RMK AO2
                 P0000 T02280228 =
2018-07-21 17:54 METAR KSBY 212154Z 08014G20KT 2 1/2SM -RA BR BKN008 OVC014 23/23 A2972 RMK AO2
                 VIS 2V4 RAE2059B21 SLP065 P0003 T02330228 =
2018-07-21 17:50 METAR KSBY 212150Z 08015KT 2 1/2SM -RA BR BKN008 OVC014 23/23 A2972 RMK AO2
                 RAE2059B21 P0003 =
2018-07-21 17:46 METAR KSBY 212146Z 07015G20KT 2 1/2SM -RA BR BKN011 OVC016 23/23 A2972 RMK AO2
                 RAE2059B21 P0002 T02330228 =
2018-07-21 17:44 METAR KSBY 212144Z 08012G18KT 1 3/4SM -RA BR BKN009 BKN014 OVC019 23/23 A2973
                 RMK AO2 RAE2059B21 P0002 T02330228 =
2018-07-21 17:42 METAR KSBY 212142Z 08013G19KT 2SM -RA BR SCT009 BKN014 OVC035 23/23 A2973 RMK
                 AO2 RAE2059B21 P0002 T02330233 =
2018-07-21 17:33 METAR KSBY 212133Z 08013KT 6SM -RA BR FEW008 BKN013 OVC018 23/23 A2973 RMK AO2
                 RAE2059B21 P0001 T02330233 =
2018-07-21 16:54 METAR KSBY 212054Z 09012KT 5SM -RA BR SCT010 BKN016 OVC022 24/23 A2976 RMK AO2
                 RAE22B49 SLP078 P0000 60038 T02390233 58021 =
2018-07-21 16:36 METAR KSBY 212036Z 08013KT 10SM FEW009 BKN013 OVC020 24/23 A2977 RMK AO2 RAE22
                 P0000 T02390233 =
2018-07-21 16:26 METAR KSBY 212026Z 08011KT 10SM SCT010 BKN015 OVC019 24/23 A2977 RMK AO2 RAE22
                 P0000 T02390233 =
2018-07-21 16:21 METAR KSBY 212021Z 09011KT 10SM -RA BKN011 OVC017 24/23 A2977 RMK AO2 P0000
                 T02390233 =
2018-07-21 16:14 METAR KSBY 212014Z 08013G20KT 9SM -RA SCT009 OVC016 24/23 A2977 RMK AO2 P0000
                 T02390233 =
2018-07-21 15:54 METAR KSBY 211954Z 11012KT 8SM -RA BKN010 OVC013 23/23 A2978 RMK AO2 CIG 006V012
                 SLP087 P0004 T02330233 =
2018-07-21 15:33 METAR KSBY 211933Z 10012KT 9SM -RA BKN010 BKN037 OVC065 23/23 A2979 RMK AO2
                 P0004 T02330233 =
2018-07-21 14:54 METAR KSBY 211854Z 12010G20KT 3SM RA BR FEW009 BKN044 OVC055 23/23 A2981 RMK AO2
                 PK WND 11032/1825 WSHFT 1820 SLP097 P0034 T02280228 =
2018-07-21 14:44 METAR KSBY 211844Z 13015G23KT 2SM +RA BR FEW007 SCT017 OVC044 23/23 A2982 RMK
                 AO2 PK WND 11032/1825 WSHFT 1820 P0032 T02280228 =
2018-07-21 14:41 METAR KSBY 211841Z 12019G25KT 1 3/4SM +RA BR SCT007 BKN025 OVC046 23/23 A2982
                 RMK AO2 PK WND 11032/1825 WSHFT 1820 P0031 T02280228 =
2018-07-21 14:34 METAR KSBY 211834Z 13020G32KT 1 1/4SM +RA BR SCT007 BKN014 OVC030 23/23 A2982
                 RMK AO2 PK WND 11032/1825 WSHFT 1820 P0028 T02330228 =
2018-07-21 13:54 METAR KSBY 211754Z 09014G22KT 1 3/4SM +RA BR OVC007 23/23 A2982 RMK AO2 CIG
                 005V009 SLP099 P0013 60047 T02330233 10244 20222 56023 =
2018-07-21 13:51 METAR KSBY 211751Z 09014G22KT 1 1/2SM +RA BR OVC007 23/23 A2982 RMK AO2 CIG
                 005V012 P0012 =
2018-07-21 13:33 METAR KSBY 211733Z 07016G21KT 2SM RA BR OVC007 23/23 A2982 RMK AO2 CIG 005V010
                 P0006 T02330233 =
2018-07-21 12:54 METAR KSBY 211654Z 08011G20KT 8SM -RA OVC008 24/24 A2986 RMK AO2 SLP112 P0001
                 T02390239 =
2018-07-21 12:33 METAR KSBY 211633Z 08012KT 8SM -RA OVC008 24/23 A2987 RMK AO2 CIG 006V010 P0001
                 T02390233 =
2018-07-21 12:20 METAR KSBY 211620Z 09012KT 9SM -RA OVC010 24/23 A2988 RMK AO2 CIG 006V013 P0000
                 T02390233 =

Support USWX by starting your Amazon purchase here.